sensor_id;sensor_type;location;lat;lon;timestamp;pressure;altitude;pressure_sealevel;temperature;humidity
56052;BME280;41919;42.648;23.384;2022-12-18T00:00:54;95288.31;;;7.61;88.26
56052;BME280;41919;42.648;23.384;2022-12-18T00:03:20;95289.66;;;7.49;88.57
56052;BME280;41919;42.648;23.384;2022-12-18T00:05:49;95300.06;;;7.49;88.13
56052;BME280;41919;42.648;23.384;2022-12-18T00:08:14;95305.28;;;7.32;87.89
56052;BME280;41919;42.648;23.384;2022-12-18T00:10:40;95309.03;;;7.21;87.69
56052;BME280;41919;42.648;23.384;2022-12-18T00:13:05;95306.63;;;7.12;88.78
56052;BME280;41919;42.648;23.384;2022-12-18T00:15:32;95309.53;;;7.17;88.61
56052;BME280;41919;42.648;23.384;2022-12-18T00:17:58;95319.13;;;7.16;88.60
56052;BME280;41919;42.648;23.384;2022-12-18T00:20:23;95317.81;;;7.12;88.12
56052;BME280;41919;42.648;23.384;2022-12-18T00:22:51;95314.88;;;7.07;87.75
56052;BME280;41919;42.648;23.384;2022-12-18T00:25:16;95327.38;;;7.03;87.89
56052;BME280;41919;42.648;23.384;2022-12-18T00:27:41;95323.03;;;7.04;87.96
56052;BME280;41919;42.648;23.384;2022-12-18T00:30:07;95331.13;;;6.84;88.48
56052;BME280;41919;42.648;23.384;2022-12-18T00:32:32;95334.41;;;6.86;89.31
56052;BME280;41919;42.648;23.384;2022-12-18T00:34:58;95332.25;;;6.90;89.01
56052;BME280;41919;42.648;23.384;2022-12-18T00:37:23;95331.63;;;6.96;88.85
56052;BME280;41919;42.648;23.384;2022-12-18T00:39:48;95336.00;;;6.87;88.48
56052;BME280;41919;42.648;23.384;2022-12-18T00:42:14;95327.41;;;6.87;87.93
56052;BME280;41919;42.648;23.384;2022-12-18T00:44:58;95330.97;;;6.70;88.38
56052;BME280;41919;42.648;23.384;2022-12-18T00:47:23;95335.97;;;6.71;88.80
56052;BME280;41919;42.648;23.384;2022-12-18T00:49:48;95346.22;;;6.73;88.60
56052;BME280;41919;42.648;23.384;2022-12-18T00:52:14;95343.31;;;6.84;88.37
56052;BME280;41919;42.648;23.384;2022-12-18T00:54:39;95350.94;;;6.77;88.39
56052;BME280;41919;42.648;23.384;2022-12-18T00:57:04;95344.44;;;6.81;87.76
56052;BME280;41919;42.648;23.384;2022-12-18T00:59:29;95351.75;;;6.70;87.55
56052;BME280;41919;42.648;23.384;2022-12-18T01:01:55;95355.59;;;6.57;88.60
56052;BME280;41919;42.648;23.384;2022-12-18T01:04:20;95348.16;;;6.71;88.28
56052;BME280;41919;42.648;23.384;2022-12-18T01:06:46;95361.78;;;6.64;88.37
56052;BME280;41919;42.648;23.384;2022-12-18T01:09:11;95358.88;;;6.67;88.00
56052;BME280;41919;42.648;23.384;2022-12-18T01:11:36;95360.16;;;6.63;88.31
56052;BME280;41919;42.648;23.384;2022-12-18T01:14:02;95364.88;;;6.68;87.28
56052;BME280;41919;42.648;23.384;2022-12-18T01:16:27;95364.88;;;6.76;87.36
56052;BME280;41919;42.648;23.384;2022-12-18T01:18:53;95361.94;;;6.71;86.96
56052;BME280;41919;42.648;23.384;2022-12-18T01:21:19;95362.13;;;6.70;86.52
56052;BME280;41919;42.648;23.384;2022-12-18T01:23:45;95361.94;;;6.63;87.39
56052;BME280;41919;42.648;23.384;2022-12-18T01:26:12;95371.69;;;6.61;87.11
56052;BME280;41919;42.648;23.384;2022-12-18T01:28:38;95370.22;;;6.50;86.36
56052;BME280;41919;42.648;23.384;2022-12-18T01:33:35;95372.88;;;6.24;86.67
56052;BME280;41919;42.648;23.384;2022-12-18T01:36:00;95375.81;;;6.29;86.65
56052;BME280;41919;42.648;23.384;2022-12-18T01:38:25;95380.50;;;6.25;86.50
56052;BME280;41919;42.648;23.384;2022-12-18T01:40:56;95374.59;;;6.15;86.83
56052;BME280;41919;42.648;23.384;2022-12-18T01:43:21;95380.13;;;6.12;86.77
56052;BME280;41919;42.648;23.384;2022-12-18T01:45:47;95383.69;;;6.11;86.57
56052;BME280;41919;42.648;23.384;2022-12-18T01:48:12;95381.09;;;6.11;86.76
56052;BME280;41919;42.648;23.384;2022-12-18T01:50:38;95391.44;;;6.03;86.98
56052;BME280;41919;42.648;23.384;2022-12-18T01:53:11;95382.66;;;6.04;87.08
56052;BME280;41919;42.648;23.384;2022-12-18T01:55:48;95384.53;;;5.94;87.66
56052;BME280;41919;42.648;23.384;2022-12-18T01:58:15;95396.84;;;5.92;87.98
56052;BME280;41919;42.648;23.384;2022-12-18T02:00:41;95392.28;;;5.85;87.60
56052;BME280;41919;42.648;23.384;2022-12-18T02:03:06;95403.09;;;5.81;87.07
56052;BME280;41919;42.648;23.384;2022-12-18T02:10:33;95404.53;;;5.75;87.49
56052;BME280;41919;42.648;23.384;2022-12-18T02:13:06;95410.09;;;5.80;87.50
56052;BME280;41919;42.648;23.384;2022-12-18T02:15:47;95415.94;;;5.82;87.03
56052;BME280;41919;42.648;23.384;2022-12-18T02:18:24;95404.78;;;5.90;87.63
56052;BME280;41919;42.648;23.384;2022-12-18T02:21:00;95415.56;;;5.95;87.06
56052;BME280;41919;42.648;23.384;2022-12-18T02:26:27;95421.91;;;5.83;86.57
56052;BME280;41919;42.648;23.384;2022-12-18T02:29:02;95425.03;;;5.86;87.12
56052;BME280;41919;42.648;23.384;2022-12-18T02:31:31;95427.47;;;5.88;87.11
56052;BME280;41919;42.648;23.384;2022-12-18T02:33:59;95427.69;;;5.95;87.07
56052;BME280;41919;42.648;23.384;2022-12-18T02:36:26;95433.25;;;6.00;86.53
56052;BME280;41919;42.648;23.384;2022-12-18T02:38:53;95430.44;;;5.93;86.99
56052;BME280;41919;42.648;23.384;2022-12-18T02:41:18;95429.38;;;6.04;86.09
56052;BME280;41919;42.648;23.384;2022-12-18T02:43:53;95436.31;;;5.95;85.97
56052;BME280;41919;42.648;23.384;2022-12-18T02:46:23;95424.50;;;6.01;85.72
56052;BME280;41919;42.648;23.384;2022-12-18T02:48:50;95423.84;;;5.99;85.49
56052;BME280;41919;42.648;23.384;2022-12-18T02:51:18;95431.25;;;5.94;85.17
56052;BME280;41919;42.648;23.384;2022-12-18T02:53:50;95427.47;;;5.88;85.71
56052;BME280;41919;42.648;23.384;2022-12-18T03:03:51;95451.13;;;5.59;86.49
56052;BME280;41919;42.648;23.384;2022-12-18T03:06:24;95451.25;;;5.57;86.26
56052;BME280;41919;42.648;23.384;2022-12-18T03:08:54;95456.16;;;5.42;87.16
56052;BME280;41919;42.648;23.384;2022-12-18T03:11:21;95466.25;;;5.45;87.65
56052;BME280;41919;42.648;23.384;2022-12-18T03:14:06;95462.97;;;5.43;87.39
56052;BME280;41919;42.648;23.384;2022-12-18T03:16:32;95458.84;;;5.50;87.35
56052;BME280;41919;42.648;23.384;2022-12-18T03:19:10;95449.56;;;5.48;86.73
56052;BME280;41919;42.648;23.384;2022-12-18T03:21:38;95458.00;;;5.50;87.17
56052;BME280;41919;42.648;23.384;2022-12-18T03:24:06;95463.72;;;5.54;86.94
56052;BME280;41919;42.648;23.384;2022-12-18T03:26:32;95466.81;;;5.57;87.37
56052;BME280;41919;42.648;23.384;2022-12-18T03:29:02;95473.69;;;5.66;86.39
56052;BME280;41919;42.648;23.384;2022-12-18T03:31:28;95479.25;;;5.72;85.87
56052;BME280;41919;42.648;23.384;2022-12-18T03:33:57;95480.81;;;5.64;85.10
56052;BME280;41919;42.648;23.384;2022-12-18T03:36:24;95484.38;;;5.63;85.62
56052;BME280;41919;42.648;23.384;2022-12-18T03:38:49;95488.13;;;5.69;84.88
56052;BME280;41919;42.648;23.384;2022-12-18T03:41:36;95488.97;;;5.69;84.88
56052;BME280;41919;42.648;23.384;2022-12-18T03:44:09;95492.97;;;5.64;84.85
56052;BME280;41919;42.648;23.384;2022-12-18T03:49:12;95504.97;;;5.65;84.13
56052;BME280;41919;42.648;23.384;2022-12-18T03:51:50;95511.94;;;5.64;83.71
56052;BME280;41919;42.648;23.384;2022-12-18T03:54:18;95512.31;;;5.52;83.93
56052;BME280;41919;42.648;23.384;2022-12-18T03:56:48;95518.09;;;5.45;83.52
56052;BME280;41919;42.648;23.384;2022-12-18T03:59:15;95512.91;;;5.45;84.00
56052;BME280;41919;42.648;23.384;2022-12-18T04:01:44;95513.94;;;5.53;83.76
56052;BME280;41919;42.648;23.384;2022-12-18T04:04:11;95510.22;;;5.55;83.26
56052;BME280;41919;42.648;23.384;2022-12-18T04:06:37;95505.19;;;5.54;83.17
56052;BME280;41919;42.648;23.384;2022-12-18T04:09:04;95510.25;;;5.37;83.86
56052;BME280;41919;42.648;23.384;2022-12-18T04:11:29;95510.91;;;5.39;83.77
56052;BME280;41919;42.648;23.384;2022-12-18T04:13:55;95515.13;;;5.40;83.52
56052;BME280;41919;42.648;23.384;2022-12-18T04:16:21;95519.34;;;5.41;83.74
56052;BME280;41919;42.648;23.384;2022-12-18T04:18:46;95524.00;;;5.38;83.94
56052;BME280;41919;42.648;23.384;2022-12-18T04:21:11;95524.81;;;5.38;84.03
56052;BME280;41919;42.648;23.384;2022-12-18T04:23:37;95524.00;;;5.20;84.73
56052;BME280;41919;42.648;23.384;2022-12-18T04:26:02;95531.84;;;5.28;84.28
56052;BME280;41919;42.648;23.384;2022-12-18T04:28:27;95530.59;;;5.32;84.13
56052;BME280;41919;42.648;23.384;2022-12-18T04:30:53;95535.72;;;5.24;83.69
56052;BME280;41919;42.648;23.384;2022-12-18T04:33:18;95531.94;;;5.36;83.24
56052;BME280;41919;42.648;23.384;2022-12-18T04:35:43;95541.50;;;5.36;82.96
56052;BME280;41919;42.648;23.384;2022-12-18T04:38:09;95551.19;;;5.34;82.93
56052;BME280;41919;42.648;23.384;2022-12-18T04:40:35;95551.06;;;5.35;81.27
56052;BME280;41919;42.648;23.384;2022-12-18T04:43:00;95546.63;;;5.18;82.21
56052;BME280;41919;42.648;23.384;2022-12-18T04:45:26;95557.91;;;5.26;81.94
56052;BME280;41919;42.648;23.384;2022-12-18T04:47:51;95562.97;;;5.28;81.33
56052;BME280;41919;42.648;23.384;2022-12-18T04:50:16;95560.06;;;5.31;81.13
56052;BME280;41919;42.648;23.384;2022-12-18T04:52:41;95565.97;;;5.23;81.39
56052;BME280;41919;42.648;23.384;2022-12-18T04:55:07;95568.19;;;5.18;81.12
56052;BME280;41919;42.648;23.384;2022-12-18T04:57:32;95574.19;;;5.19;80.42
56052;BME280;41919;42.648;23.384;2022-12-18T04:59:57;95574.78;;;5.13;80.20
56052;BME280;41919;42.648;23.384;2022-12-18T05:02:23;95571.53;;;5.10;79.66
56052;BME280;41919;42.648;23.384;2022-12-18T05:04:48;95575.88;;;5.10;79.77
56052;BME280;41919;42.648;23.384;2022-12-18T05:07:13;95572.31;;;5.11;79.31
56052;BME280;41919;42.648;23.384;2022-12-18T05:09:38;95593.19;;;5.09;78.58
56052;BME280;41919;42.648;23.384;2022-12-18T05:12:04;95578.31;;;5.11;78.19
56052;BME280;41919;42.648;23.384;2022-12-18T05:14:29;95598.00;;;5.04;78.67
56052;BME280;41919;42.648;23.384;2022-12-18T05:16:54;95600.84;;;5.11;78.32
56052;BME280;41919;42.648;23.384;2022-12-18T05:19:20;95608.06;;;5.07;78.26
56052;BME280;41919;42.648;23.384;2022-12-18T05:21:45;95604.06;;;4.95;78.85
56052;BME280;41919;42.648;23.384;2022-12-18T05:24:10;95615.53;;;4.83;79.60
56052;BME280;41919;42.648;23.384;2022-12-18T05:26:35;95609.53;;;4.82;79.93
56052;BME280;41919;42.648;23.384;2022-12-18T05:29:01;95622.34;;;4.84;79.51
56052;BME280;41919;42.648;23.384;2022-12-18T05:31:26;95615.66;;;4.81;79.53
56052;BME280;41919;42.648;23.384;2022-12-18T05:33:51;95611.50;;;4.70;79.72
56052;BME280;41919;42.648;23.384;2022-12-18T05:36:16;95628.94;;;4.68;79.85
56052;BME280;41919;42.648;23.384;2022-12-18T05:38:42;95622.41;;;4.64;79.32
56052;BME280;41919;42.648;23.384;2022-12-18T05:41:08;95628.13;;;4.58;79.44
56052;BME280;41919;42.648;23.384;2022-12-18T05:43:34;95623.78;;;4.68;79.45
56052;BME280;41919;42.648;23.384;2022-12-18T05:46:03;95632.22;;;4.70;79.08
56052;BME280;41919;42.648;23.384;2022-12-18T05:48:28;95630.91;;;4.57;79.73
56052;BME280;41919;42.648;23.384;2022-12-18T05:50:54;95624.59;;;4.59;79.34
56052;BME280;41919;42.648;23.384;2022-12-18T05:53:20;95630.44;;;4.71;79.07
56052;BME280;41919;42.648;23.384;2022-12-18T05:55:46;95630.03;;;4.66;78.95
56052;BME280;41919;42.648;23.384;2022-12-18T05:58:12;95637.78;;;4.66;78.34
56052;BME280;41919;42.648;23.384;2022-12-18T06:00:38;95644.63;;;4.67;78.46
56052;BME280;41919;42.648;23.384;2022-12-18T06:03:07;95647.50;;;4.54;78.45
56052;BME280;41919;42.648;23.384;2022-12-18T06:05:37;95648.59;;;4.61;78.56
56052;BME280;41919;42.648;23.384;2022-12-18T06:08:03;95660.59;;;4.62;78.39
56052;BME280;41919;42.648;23.384;2022-12-18T06:10:28;95656.63;;;4.58;77.80
56052;BME280;41919;42.648;23.384;2022-12-18T06:12:53;95666.31;;;4.56;78.29
56052;BME280;41919;42.648;23.384;2022-12-18T06:15:19;95658.03;;;4.53;78.13
56052;BME280;41919;42.648;23.384;2022-12-18T06:17:44;95663.72;;;4.56;78.04
56052;BME280;41919;42.648;23.384;2022-12-18T06:20:09;95665.09;;;4.60;77.70
56052;BME280;41919;42.648;23.384;2022-12-18T06:22:35;95666.47;;;4.55;77.65
56052;BME280;41919;42.648;23.384;2022-12-18T06:25:00;95671.63;;;4.55;78.07
56052;BME280;41919;42.648;23.384;2022-12-18T06:27:25;95676.38;;;4.59;77.90
56052;BME280;41919;42.648;23.384;2022-12-18T06:29:51;95676.94;;;4.53;78.13
56052;BME280;41919;42.648;23.384;2022-12-18T06:32:16;95676.94;;;4.53;77.79
56052;BME280;41919;42.648;23.384;2022-12-18T06:34:41;95687.84;;;4.57;77.62
56052;BME280;41919;42.648;23.384;2022-12-18T06:37:06;95693.41;;;4.52;77.95
56052;BME280;41919;42.648;23.384;2022-12-18T06:39:32;95703.22;;;4.58;78.35
56052;BME280;41919;42.648;23.384;2022-12-18T06:41:57;95698.19;;;4.66;78.10
56052;BME280;41919;42.648;23.384;2022-12-18T06:44:22;95705.25;;;4.74;78.04
56052;BME280;41919;42.648;23.384;2022-12-18T06:46:48;95702.78;;;4.82;80.90
56052;BME280;41919;42.648;23.384;2022-12-18T06:49:13;95699.22;;;4.93;78.32
56052;BME280;41919;42.648;23.384;2022-12-18T06:51:38;95698.66;;;4.99;78.21
56052;BME280;41919;42.648;23.384;2022-12-18T06:54:04;95707.91;;;5.02;77.88
56052;BME280;41919;42.648;23.384;2022-12-18T06:56:29;95708.19;;;5.08;79.01
56052;BME280;41919;42.648;23.384;2022-12-18T06:58:55;95710.59;;;5.20;78.51
56052;BME280;41919;42.648;23.384;2022-12-18T07:01:20;95714.66;;;5.22;78.66
56052;BME280;41919;42.648;23.384;2022-12-18T07:03:45;95715.22;;;5.26;76.11
56052;BME280;41919;42.648;23.384;2022-12-18T07:06:12;95716.81;;;5.27;75.59
56052;BME280;41919;42.648;23.384;2022-12-18T07:08:38;95719.00;;;5.32;75.69
56052;BME280;41919;42.648;23.384;2022-12-18T07:11:04;95712.03;;;5.32;74.43
56052;BME280;41919;42.648;23.384;2022-12-18T07:13:30;95725.56;;;5.26;73.16
56052;BME280;41919;42.648;23.384;2022-12-18T07:15:55;95723.34;;;5.31;73.75
56052;BME280;41919;42.648;23.384;2022-12-18T07:18:20;95727.75;;;5.21;72.91
56052;BME280;41919;42.648;23.384;2022-12-18T07:20:45;95723.16;;;5.15;73.24
56052;BME280;41919;42.648;23.384;2022-12-18T07:23:11;95721.34;;;5.25;73.28
56052;BME280;41919;42.648;23.384;2022-12-18T07:25:36;95725.03;;;5.22;73.60
56052;BME280;41919;42.648;23.384;2022-12-18T07:28:02;95727.09;;;5.19;73.29
56052;BME280;41919;42.648;23.384;2022-12-18T07:30:27;95720.66;;;5.23;73.27
56052;BME280;41919;42.648;23.384;2022-12-18T07:32:53;95739.38;;;5.17;73.23
56052;BME280;41919;42.648;23.384;2022-12-18T07:35:18;95743.63;;;5.08;73.65
56052;BME280;41919;42.648;23.384;2022-12-18T07:37:43;95741.88;;;5.08;73.33
56052;BME280;41919;42.648;23.384;2022-12-18T07:40:09;95745.50;;;5.16;73.62
56052;BME280;41919;42.648;23.384;2022-12-18T07:42:34;95751.91;;;5.21;73.36
56052;BME280;41919;42.648;23.384;2022-12-18T07:45:01;95748.09;;;5.16;72.75
56052;BME280;41919;42.648;23.384;2022-12-18T07:47:27;95754.53;;;5.11;73.06
56052;BME280;41919;42.648;23.384;2022-12-18T07:49:52;95760.81;;;5.09;72.95
56052;BME280;41919;42.648;23.384;2022-12-18T07:52:18;95753.59;;;5.03;73.17
56052;BME280;41919;42.648;23.384;2022-12-18T07:54:43;95763.53;;;5.07;72.93
56052;BME280;41919;42.648;23.384;2022-12-18T07:57:09;95767.78;;;5.08;73.02
56052;BME280;41919;42.648;23.384;2022-12-18T07:59:34;95763.31;;;4.91;73.49
56052;BME280;41919;42.648;23.384;2022-12-18T08:02:00;95765.06;;;4.90;73.84
56052;BME280;41919;42.648;23.384;2022-12-18T08:04:25;95774.19;;;4.85;74.30
56052;BME280;41919;42.648;23.384;2022-12-18T08:06:50;95780.91;;;4.78;74.34
56052;BME280;41919;42.648;23.384;2022-12-18T08:09:16;95788.13;;;4.64;75.13
56052;BME280;41919;42.648;23.384;2022-12-18T08:11:41;95792.34;;;4.65;74.51
56052;BME280;41919;42.648;23.384;2022-12-18T08:14:06;95801.34;;;4.61;74.84
56052;BME280;41919;42.648;23.384;2022-12-18T08:16:32;95801.75;;;4.57;75.36
56052;BME280;41919;42.648;23.384;2022-12-18T08:18:57;95799.44;;;4.63;74.84
56052;BME280;41919;42.648;23.384;2022-12-18T08:21:24;95807.75;;;4.77;74.67
56052;BME280;41919;42.648;23.384;2022-12-18T08:23:50;95810.47;;;4.75;74.62
56052;BME280;41919;42.648;23.384;2022-12-18T08:26:15;95811.69;;;4.71;75.05
56052;BME280;41919;42.648;23.384;2022-12-18T08:28:41;95818.66;;;4.70;74.58
56052;BME280;41919;42.648;23.384;2022-12-18T08:31:06;95820.56;;;4.68;74.47
56052;BME280;41919;42.648;23.384;2022-12-18T08:33:31;95815.94;;;4.62;74.32
56052;BME280;41919;42.648;23.384;2022-12-18T08:36:00;95814.56;;;4.58;74.16
56052;BME280;41919;42.648;23.384;2022-12-18T08:38:25;95819.47;;;4.61;74.18
56052;BME280;41919;42.648;23.384;2022-12-18T08:41:04;95813.19;;;4.64;73.83
56052;BME280;41919;42.648;23.384;2022-12-18T08:43:30;95824.91;;;4.58;74.44
56052;BME280;41919;42.648;23.384;2022-12-18T08:46:14;95820.44;;;4.60;74.35
56052;BME280;41919;42.648;23.384;2022-12-18T08:48:39;95827.38;;;4.69;74.31
56052;BME280;41919;42.648;23.384;2022-12-18T08:51:04;95831.06;;;4.77;74.13
56052;BME280;41919;42.648;23.384;2022-12-18T08:53:30;95827.78;;;4.84;73.28
56052;BME280;41919;42.648;23.384;2022-12-18T08:55:56;95820.56;;;4.78;72.72
56052;BME280;41919;42.648;23.384;2022-12-18T08:58:21;95823.72;;;4.72;73.23
56052;BME280;41919;42.648;23.384;2022-12-18T09:00:46;95822.47;;;4.76;72.92
56052;BME280;41919;42.648;23.384;2022-12-18T09:03:12;95822.19;;;4.79;72.51
56052;BME280;41919;42.648;23.384;2022-12-18T09:05:37;95823.72;;;4.82;72.04
56052;BME280;41919;42.648;23.384;2022-12-18T09:08:03;95822.72;;;4.83;71.61
56052;BME280;41919;42.648;23.384;2022-12-18T09:10:28;95817.28;;;4.86;71.85
56052;BME280;41919;42.648;23.384;2022-12-18T09:12:53;95820.69;;;4.86;71.36
56052;BME280;41919;42.648;23.384;2022-12-18T09:15:18;95815.78;;;4.74;70.72
56052;BME280;41919;42.648;23.384;2022-12-18T09:17:44;95813.47;;;4.90;71.00
56052;BME280;41919;42.648;23.384;2022-12-18T09:20:09;95817.53;;;4.93;70.55
56052;BME280;41919;42.648;23.384;2022-12-18T09:22:34;95819.75;;;4.97;70.68
56052;BME280;41919;42.648;23.384;2022-12-18T09:25:00;95824.63;;;5.00;70.28
56052;BME280;41919;42.648;23.384;2022-12-18T09:27:25;95817.00;;;5.08;70.24
56052;BME280;41919;42.648;23.384;2022-12-18T09:29:50;95821.91;;;5.11;69.99
56052;BME280;41919;42.648;23.384;2022-12-18T09:32:15;95823.25;;;5.16;69.54
56052;BME280;41919;42.648;23.384;2022-12-18T09:34:41;95821.34;;;5.08;69.65
56052;BME280;41919;42.648;23.384;2022-12-18T09:37:06;95823.25;;;5.06;69.78
56052;BME280;41919;42.648;23.384;2022-12-18T09:39:31;95818.75;;;5.18;69.19
56052;BME280;41919;42.648;23.384;2022-12-18T09:41:57;95833.91;;;5.13;68.75
56052;BME280;41919;42.648;23.384;2022-12-18T09:44:27;95823.25;;;5.06;68.33
56052;BME280;41919;42.648;23.384;2022-12-18T09:47:02;95821.50;;;5.16;68.07
56052;BME280;41919;42.648;23.384;2022-12-18T09:49:33;95831.44;;;5.21;67.99
56052;BME280;41919;42.648;23.384;2022-12-18T09:54:35;95827.47;;;5.26;67.83
56052;BME280;41919;42.648;23.384;2022-12-18T09:57:03;95821.59;;;5.34;66.87
56052;BME280;41919;42.648;23.384;2022-12-18T09:59:35;95829.78;;;5.39;66.55
56052;BME280;41919;42.648;23.384;2022-12-18T10:02:18;95823.75;;;5.39;67.29
56052;BME280;41919;42.648;23.384;2022-12-18T10:04:44;95821.56;;;5.44;67.02
56052;BME280;41919;42.648;23.384;2022-12-18T10:07:16;95819.06;;;5.52;66.44
56052;BME280;41919;42.648;23.384;2022-12-18T10:09:48;95818.84;;;5.45;67.08
56052;BME280;41919;42.648;23.384;2022-12-18T10:27:53;95817.78;;;5.28;66.12
56052;BME280;41919;42.648;23.384;2022-12-18T10:30:21;95818.31;;;5.32;66.07
56052;BME280;41919;42.648;23.384;2022-12-18T10:32:46;95826.63;;;5.45;66.04
56052;BME280;41919;42.648;23.384;2022-12-18T10:35:30;95828.53;;;5.43;65.45
56052;BME280;41919;42.648;23.384;2022-12-18T10:37:59;95824.03;;;5.45;65.21
56052;BME280;41919;42.648;23.384;2022-12-18T10:40:25;95817.75;;;5.38;65.21
56052;BME280;41919;42.648;23.384;2022-12-18T10:43:10;95824.97;;;5.44;65.63
56052;BME280;41919;42.648;23.384;2022-12-18T10:45:36;95817.84;;;5.46;65.69
56052;BME280;41919;42.648;23.384;2022-12-18T10:48:01;95815.41;;;5.55;65.62
56052;BME280;41919;42.648;23.384;2022-12-18T10:50:29;95814.69;;;5.62;65.50
56052;BME280;41919;42.648;23.384;2022-12-18T10:52:55;95817.66;;;5.67;65.48
56052;BME280;41919;42.648;23.384;2022-12-18T10:55:22;95820.66;;;5.73;65.42
56052;BME280;41919;42.648;23.384;2022-12-18T10:57:47;95812.47;;;5.77;65.35
56052;BME280;41919;42.648;23.384;2022-12-18T11:00:29;95817.16;;;5.64;65.48
56052;BME280;41919;42.648;23.384;2022-12-18T11:02:55;95810.19;;;5.64;65.69
56052;BME280;41919;42.648;23.384;2022-12-18T11:05:25;95812.13;;;5.53;66.16
56052;BME280;41919;42.648;23.384;2022-12-18T11:07:51;95812.63;;;5.66;66.13
56052;BME280;41919;42.648;23.384;2022-12-18T11:10:19;95812.16;;;5.80;65.29
56052;BME280;41919;42.648;23.384;2022-12-18T11:12:45;95814.88;;;5.79;64.87
56052;BME280;41919;42.648;23.384;2022-12-18T11:15:15;95808.63;;;5.81;64.60
56052;BME280;41919;42.648;23.384;2022-12-18T11:17:40;95819.47;;;5.57;64.72
56052;BME280;41919;42.648;23.384;2022-12-18T11:20:09;95807.59;;;5.64;64.86
56052;BME280;41919;42.648;23.384;2022-12-18T11:22:44;95825.88;;;5.63;64.09
56052;BME280;41919;42.648;23.384;2022-12-18T11:25:19;95826.41;;;5.66;64.20
56052;BME280;41919;42.648;23.384;2022-12-18T11:27:58;95822.44;;;5.72;63.10
56052;BME280;41919;42.648;23.384;2022-12-18T11:30:28;95818.47;;;5.78;62.69
56052;BME280;41919;42.648;23.384;2022-12-18T11:37:54;95824.41;;;5.98;64.43
56052;BME280;41919;42.648;23.384;2022-12-18T11:40:28;95821.97;;;5.86;62.87
56052;BME280;41919;42.648;23.384;2022-12-18T11:42:55;95816.50;;;5.89;63.06
56052;BME280;41919;42.648;23.384;2022-12-18T11:45:29;95822.06;;;5.95;62.58
56052;BME280;41919;42.648;23.384;2022-12-18T11:48:12;95826.03;;;5.99;62.83
56052;BME280;41919;42.648;23.384;2022-12-18T11:53:08;95830.41;;;5.88;62.35
56052;BME280;41919;42.648;23.384;2022-12-18T12:00:45;95822.50;;;5.90;62.34
56052;BME280;41919;42.648;23.384;2022-12-18T12:06:19;95830.22;;;5.72;62.18
56052;BME280;41919;42.648;23.384;2022-12-18T12:11:16;95832.69;;;5.74;61.51
56052;BME280;41919;42.648;23.384;2022-12-18T12:26:49;95829.94;;;5.65;62.57
56052;BME280;41919;42.648;23.384;2022-12-18T12:29:26;95830.94;;;5.64;62.77
56052;BME280;41919;42.648;23.384;2022-12-18T12:32:07;95829.09;;;5.75;62.86
56052;BME280;41919;42.648;23.384;2022-12-18T12:37:11;95842.56;;;5.88;63.00
56052;BME280;41919;42.648;23.384;2022-12-18T12:39:40;95832.06;;;5.89;62.67
56052;BME280;41919;42.648;23.384;2022-12-18T12:42:16;95849.69;;;5.86;63.15
56052;BME280;41919;42.648;23.384;2022-12-18T12:45:03;95839.16;;;5.97;62.59
56052;BME280;41919;42.648;23.384;2022-12-18T12:47:31;95836.69;;;5.96;62.50
56052;BME280;41919;42.648;23.384;2022-12-18T12:49:58;95842.16;;;6.02;62.18
56052;BME280;41919;42.648;23.384;2022-12-18T12:52:27;95836.50;;;6.07;62.51
56052;BME280;41919;42.648;23.384;2022-12-18T12:54:53;95844.34;;;5.97;62.15
56052;BME280;41919;42.648;23.384;2022-12-18T12:57:21;95844.84;;;6.11;62.39
56052;BME280;41919;42.648;23.384;2022-12-18T13:05:18;95856.75;;;6.03;63.21
56052;BME280;41919;42.648;23.384;2022-12-18T13:07:56;95856.22;;;6.00;63.50
56052;BME280;41919;42.648;23.384;2022-12-18T13:23:01;95863.41;;;6.16;63.35
56052;BME280;41919;42.648;23.384;2022-12-18T13:25:44;95869.94;;;6.20;62.76
56052;BME280;41919;42.648;23.384;2022-12-18T13:28:10;95875.44;;;6.07;62.61
56052;BME280;41919;42.648;23.384;2022-12-18T13:38:23;95883.81;;;6.01;63.05
56052;BME280;41919;42.648;23.384;2022-12-18T13:45:43;95879.88;;;5.97;62.87
56052;BME280;41919;42.648;23.384;2022-12-18T13:48:28;95881.75;;;5.95;63.19
56052;BME280;41919;42.648;23.384;2022-12-18T13:51:01;95890.91;;;5.99;63.06
56052;BME280;41919;42.648;23.384;2022-12-18T13:54:17;95898.81;;;6.07;62.88
56052;BME280;41919;42.648;23.384;2022-12-18T13:56:17;95902.34;;;6.16;62.88
56052;BME280;41919;42.648;23.384;2022-12-18T13:58:42;95905.28;;;6.21;62.77
56052;BME280;41919;42.648;23.384;2022-12-18T14:01:23;95908.34;;;6.16;62.91
56052;BME280;41919;42.648;23.384;2022-12-18T14:03:50;95904.84;;;6.35;61.62
56052;BME280;41919;42.648;23.384;2022-12-18T14:06:17;95922.47;;;6.32;62.12
56052;BME280;41919;42.648;23.384;2022-12-18T14:08:43;95918.22;;;6.31;62.01
56052;BME280;41919;42.648;23.384;2022-12-18T14:11:20;95909.78;;;6.28;61.99
56052;BME280;41919;42.648;23.384;2022-12-18T14:13:47;95913.22;;;6.29;62.12
56052;BME280;41919;42.648;23.384;2022-12-18T14:16:13;95910.31;;;6.32;62.05
56052;BME280;41919;42.648;23.384;2022-12-18T14:21:17;95925.06;;;6.32;61.86
56052;BME280;41919;42.648;23.384;2022-12-18T14:23:42;95924.25;;;6.31;62.17
56052;BME280;41919;42.648;23.384;2022-12-18T14:26:25;95925.66;;;6.25;61.20
56052;BME280;41919;42.648;23.384;2022-12-18T14:28:52;95921.28;;;6.26;61.15
56052;BME280;41919;42.648;23.384;2022-12-18T14:31:21;95921.97;;;6.18;60.73
56052;BME280;41919;42.648;23.384;2022-12-18T14:33:48;95924.31;;;6.12;60.68
56052;BME280;41919;42.648;23.384;2022-12-18T14:36:20;95926.69;;;6.05;60.92
56052;BME280;41919;42.648;23.384;2022-12-18T14:38:53;95925.59;;;5.98;60.26
56052;BME280;41919;42.648;23.384;2022-12-18T14:41:19;95926.28;;;6.00;60.29
56052;BME280;41919;42.648;23.384;2022-12-18T14:43:47;95920.53;;;5.86;60.89
56052;BME280;41919;42.648;23.384;2022-12-18T14:48:50;95920.28;;;5.89;60.66
56052;BME280;41919;42.648;23.384;2022-12-18T14:51:19;95927.09;;;5.90;60.25